KJHW

Chautauqua County / Jamestown Airport

Jamestown, New York, USA
KJHW 210850Z 2109/2206 VRB03KT P6SM SCT130 FM211400 03004KT P6SM FEW150 FM211800 03008KT P6SM FEW250 FM220200 07008KT P6SM FEW250 AMD LTD TO CLD VIS AND WIND
Issued Valid From Valid To
Jun-21 @ 08:50 UTC
(an hour ago)
Jun-21 @ 09:00 UTC
(an hour ago)
Jun-22 @ 06:00 UTC
(in 20 hours)
Jun-21 @ 09:00 to Jun-21 @ 14:00
KJHW 210850Z 2109/2206 VRB03KT P6SM SCT130
Wind Visibility Clouds
Variable at 3 knots Greater than 6 miles
  • Scattered at 13,000' AGL
From Jun-21 @ 14:00 to Jun-21 @ 18:00
FM211400 03004KT P6SM FEW150
Wind Visibility Clouds
30° at 4 knots Greater than 6 miles
  • Few at 15,000' AGL
From Jun-21 @ 18:00 to Jun-22 @ 02:00
FM211800 03008KT P6SM FEW250
Wind Visibility Clouds
30° at 8 knots Greater than 6 miles
  • Few at 25,000' AGL
From Jun-22 @ 02:00 to Jun-22 @ 06:00
FM220200 07008KT P6SM FEW250 AMD LTD TO CLD VIS AND WIND
Wind Visibility Clouds
70° at 8 knots Greater than 6 miles
  • Few at 25,000' AGL
KJHW 210850Z 2109/2206 VRB03KT P6SM SCT130 FM211400 03004KT P6SM FEW150 FM211800 03008KT P6SM FEW250 FM220200 07008KT P6SM FEW250 AMD LTD TO CLD VIS AND WIND
Issued Jun-21 @ 08:50 UTC
(an hour ago)
Valid From Jun-21 @ 09:00 UTC
(an hour ago)
Valid To Jun-22 @ 06:00 UTC
(in 20 hours)
Jun-21 @ 09:00 - Jun-21 @ 14:00
Wind Visibility
Variable at 3 knots Greater than 6 miles
Clouds
  • Scattered at 13,000' AGL
From Jun-21 @ 14:00 - Jun-21 @ 18:00
Wind Visibility
30° at 4 knots Greater than 6 miles
Clouds
  • Few at 15,000' AGL
From Jun-21 @ 18:00 - Jun-22 @ 02:00
Wind Visibility
30° at 8 knots Greater than 6 miles
Clouds
  • Few at 25,000' AGL
From Jun-22 @ 02:00 - Jun-22 @ 06:00
Wind Visibility
70° at 8 knots Greater than 6 miles
Clouds
  • Few at 25,000' AGL